Salt Pond, Missouri
Current Conditions -  °F | °C
As of 10:58 AM on Thursday 30 Oct 2014 (Local Time) from KSZL Reporting Station
Thunderstorm Thunderstorm  
Wind Chill: 55°   Ceiling: 8000
Heat Index: 55°   Visibility: 8mi
Dew Point: 44°   Wind: 12mph
Humidity: 66%   Direction: 190°S
Pressure: 30.03"   Gusts: NA
Location:  38.9707°N, 93.4332°W
Report Text: KSZL 301558Z 19010KT 8SM -RA VCTS FEW030 BKN080 13/07 A3003 RMK AO2A SLP173 P0000 T01290067 $
Loading
Personal Weather Stations






























Interactive Weather Map
Tropical Storm Tracking
New forecast layout! Learn more

10-Day Weather Forecast

Advertisements
Track Severe Weather on mobile